Weather at Biplane Ranch Airport

Public forecast

Using degrees Fahrenheit for public forecast. Weather courtesy of forecast.io.

Closest aviation weather report (METAR) to Biplane Ranch Airport

Closest report is Moriarty Municipal Airport, 8.9 nm (16.4 km) ENE.

(retrieved 0 seconds ago)

Closest aviation forecast (TAF) to Biplane Ranch Airport

Closest forecast is Albuquerque International Sunport, 22.4 nm (41.5 km) WNW.

2024/07/17 18:36 (retrieved 2 hours ago)

TAF KABQ 171733Z 1718/1818 09011KT P6SM SCT150 FM172100 10014G22KT P6SM VCSH SCT120 FM172300 09025G37KT P6SM VCTS BKN100CB TEMPO 1800/1804 VRB20G35KT 5SM -TSRA OVC050CB FM180400 07012G20KT P6SM VCSH OVC080 PROB30 1804/1808 VRB20G35KT 6SM -SHRA OVC050 FM180800 08011KT P6SM BKN070 FM181400 VRB06KT P6SM SCT070